Morehead, Kentucky
Current Conditions -  °F | °C
As of 7:30 AM on Tuesday 27 Jan 2015 (Local Time) from KSYM Reporting Station
Light Snow Light Snow  
Wind Chill: 17°   Ceiling: 2000
Heat Index: 23°   Visibility: 10mi
Dew Point: 18°   Wind: 5mph
Humidity: 80%   Direction: 20°NNE
Pressure: 29.98"   Gusts: NA
Location:  38.18°N, 83.44°W
Report Text: KSYM 271230Z AUTO 02004KT 10SM -SN FEW005 BKN020 OVC029 M05/M08 A2998 RMK AO2
Loading
Personal Weather Stations






























Interactive Weather Map New forecast layout! Learn more

10-Day Weather Forecast

Advertisements
Track Severe Weather on mobile